createdAt,value
2019-02-12T00:00:52.500Z,100436.74
2019-02-12T00:03:22.045Z,100443.97
2019-02-12T00:05:51.495Z,100446.83
2019-02-12T00:08:21.037Z,100457.96
2019-02-12T00:10:50.563Z,100459.31
2019-02-12T00:13:20.022Z,100462.00
2019-02-12T00:15:49.494Z,100454.41
2019-02-12T00:18:19.090Z,100464.83
2019-02-12T00:20:48.662Z,100471.23
2019-02-12T00:23:18.210Z,100468.66
2019-02-12T00:25:47.721Z,100470.66
2019-02-12T00:28:17.197Z,100480.58
2019-02-12T00:30:46.655Z,100487.47
2019-02-12T00:33:16.146Z,100491.79
2019-02-12T00:35:45.671Z,100495.46
2019-02-12T00:38:15.135Z,100489.38
2019-02-12T00:40:44.747Z,100505.17
2019-02-12T00:43:14.210Z,100500.09
2019-02-12T00:45:43.729Z,100517.23
2019-02-12T00:48:13.216Z,100516.02
2019-02-12T00:50:42.723Z,100515.19
2019-02-12T00:53:12.181Z,100522.41
2019-02-12T00:55:41.723Z,100532.33
2019-02-12T00:58:11.185Z,100530.98
2019-02-12T01:00:40.637Z,100539.06
2019-02-12T01:03:11.399Z,100539.92
2019-02-12T01:05:40.857Z,100535.87
2019-02-12T01:08:10.295Z,100545.30
2019-02-12T01:10:39.749Z,100545.42
2019-02-12T01:13:09.366Z,100547.78
2019-02-12T01:15:38.890Z,100562.11
2019-02-12T01:18:08.355Z,100567.49
2019-02-12T01:20:37.852Z,100569.66
2019-02-12T01:23:07.369Z,100577.62
2019-02-12T01:25:36.963Z,100576.27
2019-02-12T01:28:06.466Z,100585.70
2019-02-12T01:30:35.932Z,100590.59
2019-02-12T01:33:05.478Z,100588.88
2019-02-12T01:35:35.033Z,100591.73
2019-02-12T01:38:06.026Z,100603.33
2019-02-12T01:40:35.464Z,100597.61
2019-02-12T01:43:04.953Z,100601.16
2019-02-12T01:45:34.410Z,100599.44
2019-02-12T01:48:03.904Z,100603.84
2019-02-12T01:50:33.404Z,100613.77
2019-02-12T01:53:02.847Z,100616.80
2019-02-12T01:55:32.433Z,100633.31
2019-02-12T01:58:01.880Z,100635.64
2019-02-12T02:00:33.834Z,100647.15
2019-02-12T02:03:03.371Z,100642.09
2019-02-12T02:05:32.860Z,100661.69
2019-02-12T02:08:02.395Z,100674.51
2019-02-12T02:10:31.881Z,100676.34
2019-02-12T02:13:01.375Z,100688.31
2019-02-12T02:15:30.802Z,100685.84
2019-02-12T02:18:00.305Z,100695.27
2019-02-12T02:20:29.755Z,100696.98
2019-02-12T02:22:59.287Z,100703.87
2019-02-12T02:25:28.806Z,100700.65
2019-02-12T02:27:58.754Z,100708.39
2019-02-12T02:30:28.246Z,100715.98
2019-02-12T02:32:57.742Z,100716.33
2019-02-12T02:35:27.244Z,100735.67
2019-02-12T02:37:56.727Z,100732.97
2019-02-12T02:40:27.551Z,100738.02
2019-02-12T02:42:57.021Z,100742.92
2019-02-12T02:45:26.522Z,100743.26
2019-02-12T02:47:56.039Z,100759.91
2019-02-12T02:50:25.511Z,100755.53
2019-02-12T02:52:54.965Z,100755.31
2019-02-12T02:55:25.926Z,100766.57
2019-02-12T02:57:55.425Z,100766.36
2019-02-12T03:00:26.931Z,100771.03
2019-02-12T03:02:56.515Z,100779.72
2019-02-12T03:05:25.964Z,100786.11
2019-02-12T03:07:55.473Z,100794.68
2019-02-12T03:10:24.959Z,100797.86
2019-02-12T03:12:54.483Z,100805.08
2019-02-12T03:15:23.912Z,100802.05
2019-02-12T03:17:53.383Z,100809.98
2019-02-12T03:20:24.184Z,100816.86
2019-02-12T03:22:57.770Z,100815.02
2019-02-12T03:25:27.310Z,100813.68
2019-02-12T03:27:56.799Z,100816.37
2019-02-12T03:30:26.249Z,100823.70
2019-02-12T03:32:55.870Z,100829.61
2019-02-12T03:35:25.319Z,100841.09
2019-02-12T03:37:54.838Z,100842.56
2019-02-12T03:40:24.743Z,100846.48
2019-02-12T03:42:54.236Z,100851.98
2019-02-12T03:45:23.813Z,100856.02
2019-02-12T03:47:53.285Z,100862.98
2019-02-12T03:50:23.122Z,100860.44
2019-02-12T03:52:52.677Z,100871.58
2019-02-12T03:55:22.318Z,100870.34
2019-02-12T03:57:52.257Z,100876.11
2019-02-12T04:00:22.019Z,100878.42
2019-02-12T04:03:02.775Z,100880.63
2019-02-12T04:05:32.309Z,100887.36
2019-02-12T04:08:02.214Z,100890.06
2019-02-12T04:10:31.801Z,100886.98
2019-02-12T04:13:01.285Z,100890.55
2019-02-12T04:15:30.889Z,100893.72
2019-02-12T04:18:00.485Z,100903.15
2019-02-12T04:20:29.995Z,100899.26
2019-02-12T04:22:59.439Z,100908.05
2019-02-12T04:25:29.085Z,100908.76
2019-02-12T04:27:58.530Z,100910.85
2019-02-12T04:30:28.060Z,100904.83
2019-02-12T04:32:57.569Z,100905.17
2019-02-12T04:35:27.143Z,100911.91
2019-02-12T04:37:56.618Z,100908.72
2019-02-12T04:40:26.239Z,100914.48
2019-02-12T04:42:58.767Z,100913.85
2019-02-12T04:45:28.354Z,100917.03
2019-02-12T04:47:59.786Z,100925.11
2019-02-12T04:50:29.302Z,100929.52
2019-02-12T04:52:58.821Z,100926.45
2019-02-12T04:55:28.452Z,100924.28
2019-02-12T04:57:58.177Z,100931.84
2019-02-12T05:00:27.681Z,100936.89
2019-02-12T05:02:57.261Z,100936.03
2019-02-12T05:05:26.714Z,100936.14
2019-02-12T05:07:56.394Z,100939.36
2019-02-12T05:10:26.922Z,100940.81
2019-02-12T05:12:56.440Z,100942.66
2019-02-12T05:15:25.888Z,100946.84
2019-02-12T05:17:55.328Z,100955.55
2019-02-12T05:20:24.828Z,100961.91
2019-02-12T05:22:54.328Z,100958.98
2019-02-12T05:25:23.868Z,100967.21
2019-02-12T05:27:53.346Z,100968.67
2019-02-12T05:30:22.864Z,100978.09
2019-02-12T05:32:52.336Z,100982.99
2019-02-12T05:35:21.865Z,100980.30
2019-02-12T05:37:51.287Z,100992.91
2019-02-12T05:40:20.778Z,100991.56
2019-02-12T05:42:50.215Z,100991.56
2019-02-12T05:45:19.776Z,100996.23
2019-02-12T05:47:49.320Z,101001.61
2019-02-12T05:50:18.898Z,101000.75
2019-02-12T05:52:54.371Z,101002.09
2019-02-12T05:55:19.605Z,101007.14
2019-02-12T05:57:49.143Z,101018.14
2019-02-12T06:00:19.664Z,101010.92
2019-02-12T06:02:49.156Z,101012.27
2019-02-12T06:05:27.946Z,101022.19
2019-02-12T06:07:57.508Z,101021.70
2019-02-12T06:10:27.466Z,101026.56
2019-02-12T06:12:57.129Z,101032.47
2019-02-12T06:15:26.766Z,101033.30
2019-02-12T06:17:56.967Z,101035.16
2019-02-12T06:20:26.503Z,101029.78
2019-02-12T06:23:03.489Z,101042.72
2019-02-12T06:25:27.793Z,101044.93
2019-02-12T06:27:57.249Z,101040.55
2019-02-12T06:30:26.981Z,101039.69
2019-02-12T06:32:56.419Z,101050.95
2019-02-12T06:35:27.353Z,101056.33
2019-02-12T06:37:56.979Z,101055.47
2019-02-12T06:40:29.468Z,101064.03
2019-02-12T06:42:59.067Z,101065.86
2019-02-12T06:45:28.693Z,101068.45
2019-02-12T06:47:58.289Z,101069.30
2019-02-12T06:50:27.765Z,101071.00
2019-02-12T06:52:57.207Z,101080.66
2019-02-12T06:55:26.809Z,101077.85
2019-02-12T06:57:59.894Z,101082.13
2019-02-12T07:00:29.423Z,101083.33
2019-02-12T07:03:30.575Z,101079.66
2019-02-12T07:06:13.621Z,101089.58
2019-02-12T07:09:10.248Z,101092.64
2019-02-12T07:12:29.367Z,101093.48
2019-02-12T07:15:16.520Z,101100.73
2019-02-12T07:18:15.275Z,101104.87
2019-02-12T07:21:14.483Z,101104.53
2019-02-12T07:24:36.652Z,101114.93
2019-02-12T07:27:45.070Z,101116.77
2019-02-12T07:30:40.422Z,101127.30
2019-02-12T07:33:33.200Z,101119.22
2019-02-12T07:36:35.518Z,101129.27
2019-02-12T07:39:28.192Z,101128.06
2019-02-12T07:42:59.634Z,101130.87
2019-02-12T07:45:50.191Z,101137.22
2019-02-12T07:48:51.677Z,101139.68
2019-02-12T07:52:07.729Z,101142.10
2019-02-12T07:55:28.860Z,101149.35
2019-02-12T07:58:27.866Z,101154.22
2019-02-12T08:01:21.299Z,101156.84
2019-02-12T08:04:28.520Z,101159.77
2019-02-12T08:07:45.033Z,101169.80
2019-02-12T08:10:39.450Z,101170.53
2019-02-12T08:14:05.107Z,101176.64
2019-02-12T08:17:05.899Z,101169.89
2019-02-12T08:20:20.998Z,101183.59
2019-02-12T08:23:30.320Z,101181.77
2019-02-12T08:26:40.769Z,101189.08
2019-02-12T08:29:45.250Z,101189.59
2019-02-12T08:32:58.428Z,101191.19
2019-02-12T08:36:02.725Z,101189.09
2019-02-12T08:39:12.441Z,101195.58
2019-02-12T08:42:17.288Z,101192.55
2019-02-12T08:44:59.683Z,101191.83
2019-02-12T08:47:59.186Z,101201.36
2019-02-12T08:51:08.093Z,101203.70
2019-02-12T08:54:10.983Z,101205.53
2019-02-12T08:57:13.424Z,101202.47
2019-02-12T09:00:33.778Z,101208.34
2019-02-12T09:03:44.832Z,101223.15
2019-02-12T09:06:44.389Z,101222.66
2019-02-12T09:09:53.398Z,101226.70
2019-02-12T09:13:08.421Z,101229.77
2019-02-12T09:16:14.696Z,101229.88
2019-02-12T09:19:09.966Z,101229.77
2019-02-12T09:22:19.793Z,101224.02
2019-02-12T09:25:32.475Z,101228.42
2019-02-12T09:28:38.641Z,101233.33
2019-02-12T09:32:03.076Z,101231.98
2019-02-12T09:35:01.070Z,101233.33
2019-02-12T09:38:22.574Z,101238.83
2019-02-12T09:41:48.063Z,101234.30
2019-02-12T09:44:41.603Z,101238.34
2019-02-12T09:47:43.268Z,101243.73
2019-02-12T09:50:58.683Z,101235.64
2019-02-12T09:54:11.091Z,101240.55
2019-02-12T09:57:09.119Z,101243.86
2019-02-12T10:00:14.665Z,101251.94
2019-02-12T10:02:55.802Z,101258.30
2019-02-12T10:06:21.451Z,101262.72
2019-02-12T10:09:21.868Z,101259.64
2019-02-12T10:12:03.528Z,101269.06
2019-02-12T10:14:54.925Z,101261.95
2019-02-12T10:17:46.478Z,101262.81
2019-02-12T10:20:27.047Z,101271.38
2019-02-12T10:23:46.192Z,101277.63
2019-02-12T10:26:17.777Z,101278.88
2019-02-12T10:29:34.357Z,101279.36
2019-02-12T10:32:08.394Z,101282.91
2019-02-12T10:34:33.276Z,101273.97
2019-02-12T10:37:03.045Z,101277.52
2019-02-12T10:39:32.591Z,101276.05
2019-02-12T10:42:02.010Z,101270.17
2019-02-12T10:44:31.598Z,101271.03
2019-02-12T10:47:01.052Z,101271.86
2019-02-12T10:49:30.619Z,101271.37
2019-02-12T10:52:00.161Z,101278.11
2019-02-12T10:54:30.142Z,101286.09
2019-02-12T10:56:59.643Z,101294.65
2019-02-12T10:59:29.267Z,101295.52
2019-02-12T11:01:58.805Z,101296.34
2019-02-12T11:04:28.285Z,101299.90
2019-02-12T11:06:57.775Z,101297.20
2019-02-12T11:09:27.240Z,101299.90
2019-02-12T11:11:56.821Z,101300.77
2019-02-12T11:14:27.749Z,101291.34
2019-02-12T11:16:57.227Z,101291.34
2019-02-12T11:19:26.788Z,101290.37
2019-02-12T11:21:56.292Z,101287.67
2019-02-12T11:24:25.944Z,101291.20
2019-02-12T11:26:55.522Z,101295.75
2019-02-12T11:29:25.091Z,101304.66
2019-02-12T11:31:54.594Z,101306.02
2019-02-12T11:34:24.220Z,101300.14
2019-02-12T11:36:53.721Z,101305.53
2019-02-12T11:39:23.178Z,101304.56
2019-02-12T11:41:52.722Z,101303.56
2019-02-12T11:44:22.685Z,101307.59
2019-02-12T11:46:52.142Z,101309.08
2019-02-12T11:49:21.747Z,101303.56
2019-02-12T11:51:51.406Z,101308.95
2019-02-12T11:54:20.875Z,101310.30
2019-02-12T11:56:51.503Z,101309.46
2019-02-12T11:59:21.511Z,101311.78
2019-02-12T12:01:52.095Z,101316.30
2019-02-12T12:04:21.734Z,101309.22
2019-02-12T12:06:51.206Z,101313.61
2019-02-12T12:09:20.833Z,101321.69
2019-02-12T12:11:50.334Z,101315.81
2019-02-12T12:14:19.819Z,101325.73
2019-02-12T12:16:49.276Z,101331.59
2019-02-12T12:19:18.747Z,101331.11
2019-02-12T12:21:48.249Z,101336.50
2019-02-12T12:24:18.539Z,101339.57
2019-02-12T12:26:48.101Z,101337.84
2019-02-12T12:29:18.515Z,101349.86
2019-02-12T12:31:48.014Z,101348.00
2019-02-12T12:34:17.460Z,101350.70
2019-02-12T12:36:46.973Z,101351.94
2019-02-12T12:39:16.474Z,101358.19
2019-02-12T12:41:45.921Z,101352.80
2019-02-12T12:44:15.378Z,101355.11
2019-02-12T12:46:44.836Z,101358.53
2019-02-12T12:49:14.328Z,101352.66
2019-02-12T12:51:43.928Z,101352.18
2019-02-12T12:54:13.393Z,101352.18
2019-02-12T12:56:42.864Z,101359.30
2019-02-12T12:59:12.425Z,101357.95
2019-02-12T13:01:41.861Z,101359.64
2019-02-12T13:04:11.342Z,101360.64
2019-02-12T13:06:40.875Z,101366.38
2019-02-12T13:09:10.382Z,101366.38
2019-02-12T13:11:39.964Z,101367.23
2019-02-12T13:14:09.484Z,101382.54
2019-02-12T13:16:38.984Z,101373.59
2019-02-12T13:19:08.564Z,101379.36
2019-02-12T13:21:38.186Z,101380.70
2019-02-12T13:24:07.892Z,101374.45
2019-02-12T13:26:37.436Z,101377.15
2019-02-12T13:29:06.954Z,101381.67
2019-02-12T13:31:36.506Z,101385.23
2019-02-12T13:34:05.976Z,101386.23
2019-02-12T13:36:35.555Z,101392.10
2019-02-12T13:39:06.334Z,101377.88
2019-02-12T13:41:36.802Z,101389.89
2019-02-12T13:44:06.430Z,101391.34
2019-02-12T13:46:38.594Z,101392.69
2019-02-12T13:49:08.156Z,101390.52
2019-02-12T13:51:37.681Z,101394.55
2019-02-12T13:54:07.225Z,101391.86
2019-02-12T13:56:37.244Z,101393.69
2019-02-12T13:59:09.238Z,101393.20
2019-02-12T14:01:38.757Z,101388.30
2019-02-12T14:04:08.315Z,101388.78
2019-02-12T14:06:37.835Z,101383.40
2019-02-12T14:09:07.640Z,101380.22
2019-02-12T14:11:39.460Z,101377.53
2019-02-12T14:14:08.939Z,101386.48
2019-02-12T14:16:38.425Z,101387.93
2019-02-12T14:19:07.942Z,101394.05
2019-02-12T14:21:37.492Z,101394.18
2019-02-12T14:24:07.034Z,101392.35
2019-02-12T14:26:37.459Z,101392.84
2019-02-12T14:29:07.220Z,101389.89
2019-02-12T14:31:36.803Z,101404.71
2019-02-12T14:34:07.354Z,101409.72
2019-02-12T14:36:36.856Z,101408.86
2019-02-12T14:39:07.067Z,101415.00
2019-02-12T14:41:47.543Z,101410.72
2019-02-12T14:44:17.080Z,101411.30
2019-02-12T14:46:46.655Z,101413.75
2019-02-12T14:49:16.201Z,101412.91
2019-02-12T14:51:45.785Z,101414.37
2019-02-12T14:54:15.275Z,101412.29
2019-02-12T14:56:44.904Z,101420.85
2019-02-12T14:59:14.398Z,101421.47
2019-02-12T15:01:43.896Z,101426.47
2019-02-12T15:04:13.480Z,101422.67
2019-02-12T15:06:42.984Z,101427.09
2019-02-12T15:09:12.463Z,101430.40
2019-02-12T15:11:42.080Z,101434.06
2019-02-12T15:14:11.566Z,101429.67
2019-02-12T15:16:41.163Z,101433.71
2019-02-12T15:19:11.223Z,101423.01
2019-02-12T15:21:40.711Z,101424.00
2019-02-12T15:24:10.298Z,101418.23
2019-02-12T15:26:39.762Z,101429.14
2019-02-12T15:29:09.313Z,101422.16
2019-02-12T15:31:39.754Z,101427.03
2019-02-12T15:34:09.301Z,101421.78
2019-02-12T15:36:38.859Z,101419.19
2019-02-12T15:39:08.458Z,101417.02
2019-02-12T15:41:38.068Z,101419.32
2019-02-12T15:46:35.995Z,101417.73
2019-02-12T15:49:05.591Z,101421.38
2019-02-12T15:51:35.147Z,101420.55
2019-02-12T15:54:04.740Z,101423.34
2019-02-12T15:56:34.568Z,101424.34
2019-02-12T15:59:04.236Z,101417.23
2019-02-12T16:01:33.750Z,101419.92
2019-02-12T16:04:03.296Z,101415.02
2019-02-12T16:06:33.029Z,101419.05
2019-02-12T16:09:02.708Z,101425.79
2019-02-12T16:11:32.232Z,101426.27
2019-02-12T16:14:01.957Z,101423.70
2019-02-12T16:16:32.119Z,101417.45
2019-02-12T16:19:03.534Z,101424.19
2019-02-12T16:21:33.072Z,101428.61
2019-02-12T16:24:02.981Z,101421.50
2019-02-12T16:26:32.857Z,101421.50
2019-02-12T16:29:02.614Z,101416.12
2019-02-12T16:31:32.483Z,101421.88
2019-02-12T16:34:02.134Z,101413.08
2019-02-12T16:36:31.732Z,101415.77
2019-02-12T16:39:01.529Z,101421.15
2019-02-12T16:41:31.326Z,101421.15
2019-02-12T16:44:00.973Z,101418.08
2019-02-12T16:46:30.485Z,101420.77
2019-02-12T16:49:00.004Z,101413.66
2019-02-12T16:51:29.826Z,101413.66
2019-02-12T16:53:59.327Z,101406.92
2019-02-12T16:56:29.934Z,101411.34
2019-02-12T16:59:03.563Z,101409.52
2019-02-12T17:01:30.885Z,101408.77
2019-02-12T17:04:00.538Z,101406.84
2019-02-12T17:06:30.050Z,101404.27
2019-02-12T17:09:04.702Z,101404.03
2019-02-12T17:11:34.231Z,101408.19
2019-02-12T17:14:03.762Z,101359.47
2019-02-12T17:16:33.325Z,101405.02
2019-02-12T17:19:02.996Z,101408.61
2019-02-12T17:21:33.024Z,101408.12
2019-02-12T17:24:02.611Z,101405.44
2019-02-12T17:26:32.160Z,101403.09
2019-02-12T17:29:03.203Z,101397.61
2019-02-12T17:31:32.868Z,101402.23
2019-02-12T17:34:02.481Z,101401.03
2019-02-12T17:36:32.224Z,101389.78
2019-02-12T17:39:03.232Z,101395.52
2019-02-12T17:41:32.793Z,101386.22
2019-02-12T17:44:02.350Z,101387.19
2019-02-12T17:46:32.013Z,101388.16
2019-02-12T17:49:01.917Z,101377.88
2019-02-12T17:51:31.921Z,101382.05
2019-02-12T17:54:01.439Z,101376.53
2019-02-12T17:56:31.202Z,101378.39
2019-02-12T17:59:00.704Z,101382.54
2019-02-12T18:01:30.362Z,101383.41
2019-02-12T18:03:59.918Z,101382.19
2019-02-12T18:06:29.435Z,101380.23
2019-02-12T18:08:59.085Z,101377.15
2019-02-12T18:11:28.650Z,101380.46
2019-02-12T18:13:58.517Z,101372.63
2019-02-12T18:16:28.011Z,101367.72
2019-02-12T18:18:57.548Z,101366.75
2019-02-12T18:21:27.161Z,101359.53
2019-02-12T18:23:56.660Z,101360.88
2019-02-12T18:26:33.134Z,101360.50
2019-02-12T18:28:57.622Z,101352.91
2019-02-12T18:31:27.128Z,101360.02
2019-02-12T18:33:56.689Z,101363.20
2019-02-12T18:36:26.534Z,101357.42
2019-02-12T18:38:56.010Z,101350.70
2019-02-12T18:41:25.610Z,101347.52
2019-02-12T18:43:55.255Z,101352.05
2019-02-12T18:46:24.774Z,101353.05
2019-02-12T18:48:54.390Z,101347.66
2019-02-12T18:51:23.914Z,101347.41
2019-02-12T18:53:53.745Z,101341.52
2019-02-12T18:56:23.701Z,101348.00
2019-02-12T18:58:53.231Z,101339.30
2019-02-12T19:01:23.885Z,101327.69
2019-02-12T19:03:54.731Z,101326.11
2019-02-12T19:06:24.254Z,101329.39
2019-02-12T19:08:53.776Z,101320.96
2019-02-12T19:11:24.476Z,101323.27
2019-02-12T19:13:54.080Z,101318.75
2019-02-12T19:16:23.628Z,101315.58
2019-02-12T19:18:54.191Z,101310.05
2019-02-12T19:21:23.936Z,101310.19
2019-02-12T19:23:55.038Z,101311.63
2019-02-12T19:26:24.596Z,101305.38
2019-02-12T19:28:54.114Z,101310.03
2019-02-12T19:31:24.157Z,101304.40
2019-02-12T19:33:54.738Z,101300.45
2019-02-12T19:36:24.278Z,101297.89
2019-02-12T19:38:53.860Z,101296.78
2019-02-12T19:41:25.079Z,101288.41
2019-02-12T19:43:54.782Z,101287.81
2019-02-12T19:46:26.987Z,101281.66
2019-02-12T19:48:56.798Z,101280.31
2019-02-12T19:51:26.721Z,101273.23
2019-02-12T19:53:56.525Z,101274.20
2019-02-12T19:56:26.224Z,101273.48
2019-02-12T19:58:55.896Z,101261.60
2019-02-12T20:01:26.157Z,101255.97
2019-02-12T20:03:55.941Z,101253.16
2019-02-12T20:06:26.837Z,101255.27
2019-02-12T20:08:56.772Z,101252.58
2019-02-12T20:11:26.529Z,101256.72
2019-02-12T20:13:56.331Z,101245.36
2019-02-12T20:16:29.441Z,101252.59
2019-02-12T20:19:00.235Z,101248.16
2019-02-12T20:21:33.384Z,101243.89
2019-02-12T20:24:06.112Z,101246.95
2019-02-12T20:26:36.318Z,101247.10
2019-02-12T20:29:06.668Z,101249.91
2019-02-12T20:31:36.350Z,101240.95
2019-02-12T20:34:08.342Z,101235.33
2019-02-12T20:36:38.697Z,101230.43
2019-02-12T20:39:09.059Z,101220.28
2019-02-12T20:41:39.295Z,101213.06
2019-02-12T20:44:08.916Z,101213.30
2019-02-12T20:46:38.545Z,101211.32
2019-02-12T20:49:08.483Z,101211.45
2019-02-12T20:51:40.265Z,101209.95
2019-02-12T20:54:09.847Z,101204.32
2019-02-12T20:56:39.718Z,101203.20
2019-02-12T20:59:10.129Z,101194.02
2019-02-12T21:01:41.164Z,101186.30
2019-02-12T21:04:17.295Z,101187.02
2019-02-12T21:06:47.043Z,101181.00
2019-02-12T21:09:18.987Z,101179.66
2019-02-12T21:11:48.908Z,101179.31
2019-02-12T21:14:18.578Z,101173.41
2019-02-12T21:16:48.151Z,101168.53
2019-02-12T21:19:18.571Z,101167.04
2019-02-12T21:21:50.325Z,101164.83
2019-02-12T21:24:20.165Z,101162.13
2019-02-12T21:26:50.951Z,101156.11
2019-02-12T21:29:20.747Z,101153.80
2019-02-12T21:31:51.187Z,101142.88
2019-02-12T21:34:21.214Z,101148.87
2019-02-12T21:36:51.076Z,101146.26
2019-02-12T21:39:24.659Z,101133.79
2019-02-12T21:41:54.535Z,101131.95
2019-02-12T21:44:24.528Z,101132.52
2019-02-12T21:46:54.013Z,101127.77
2019-02-12T21:49:24.035Z,101118.96
2019-02-12T21:51:54.130Z,101120.42
2019-02-12T21:54:23.699Z,101109.64
2019-02-12T21:56:53.546Z,101110.88
2019-02-12T21:59:23.046Z,101087.48
2019-02-12T22:01:52.630Z,101085.98
2019-02-12T22:04:23.753Z,101080.97
2019-02-12T22:06:53.245Z,101080.48
2019-02-12T22:09:22.817Z,101077.78
2019-02-12T22:11:52.647Z,101063.45
2019-02-12T22:14:23.058Z,101060.75
2019-02-12T22:16:52.552Z,101053.64
2019-02-12T22:19:22.098Z,101043.34
2019-02-12T22:21:51.399Z,101040.53
2019-02-12T22:24:21.861Z,101035.00
2019-02-12T22:26:51.735Z,101020.91
2019-02-12T22:29:21.507Z,101020.16
2019-02-12T22:31:52.429Z,101006.54
2019-02-12T22:34:22.983Z,100993.28
2019-02-12T22:36:52.580Z,100981.52
2019-02-12T22:39:22.266Z,100979.69
2019-02-12T22:41:53.874Z,100969.76
2019-02-12T22:44:23.434Z,100962.87
2019-02-12T22:46:52.909Z,100956.62
2019-02-12T22:49:23.012Z,100946.20
2019-02-12T22:51:52.503Z,100937.63
2019-02-12T22:54:22.052Z,100929.05
2019-02-12T22:56:52.010Z,100927.19
2019-02-12T22:59:21.573Z,100912.72
2019-02-12T23:01:51.103Z,100903.66
2019-02-12T23:04:20.635Z,100892.50
2019-02-12T23:06:51.173Z,100878.80
2019-02-12T23:09:20.691Z,100870.98
2019-02-12T23:11:50.295Z,100862.20
2019-02-12T23:14:19.795Z,100860.14
2019-02-12T23:16:49.285Z,100851.20
2019-02-12T23:19:18.849Z,100833.80
2019-02-12T23:21:48.422Z,100830.39
2019-02-12T23:24:17.904Z,100822.80
2019-02-12T23:26:47.521Z,100809.31
2019-02-12T23:29:17.022Z,100795.84
2019-02-12T23:31:46.528Z,100789.71
2019-02-12T23:34:16.109Z,100786.16
2019-02-12T23:36:45.632Z,100772.34
2019-02-12T23:39:15.253Z,100765.61
2019-02-12T23:41:44.829Z,100759.85
2019-02-12T23:44:14.356Z,100755.31
2019-02-12T23:46:44.013Z,100746.01
2019-02-12T23:49:13.537Z,100735.02
2019-02-12T23:51:43.003Z,100730.14
2019-02-12T23:54:12.655Z,100726.59
2019-02-12T23:56:43.608Z,100712.91
2019-02-12T23:59:15.194Z,100705.67
